sensor_id;sensor_type;location;lat;lon;timestamp;P1;durP1;ratioP1;P2;durP2;ratioP2
17864;SDS011;9058;52.018;4.202;2023-04-24T00:01:06;9.65;;;3.03;;
17864;SDS011;9058;52.018;4.202;2023-04-24T00:03:34;5.35;;;2.53;;
17864;SDS011;9058;52.018;4.202;2023-04-24T00:06:00;10.88;;;2.35;;
17864;SDS011;9058;52.018;4.202;2023-04-24T00:08:27;8.05;;;3.20;;
17864;SDS011;9058;52.018;4.202;2023-04-24T00:10:54;10.15;;;2.30;;
17864;SDS011;9058;52.018;4.202;2023-04-24T00:13:20;5.95;;;2.50;;
17864;SDS011;9058;52.018;4.202;2023-04-24T00:15:48;8.25;;;2.20;;
17864;SDS011;9058;52.018;4.202;2023-04-24T00:18:14;5.47;;;2.33;;
17864;SDS011;9058;52.018;4.202;2023-04-24T00:20:41;6.88;;;2.75;;
17864;SDS011;9058;52.018;4.202;2023-04-24T00:23:08;9.23;;;3.28;;
17864;SDS011;9058;52.018;4.202;2023-04-24T00:25:36;12.15;;;3.20;;
17864;SDS011;9058;52.018;4.202;2023-04-24T00:28:03;9.38;;;2.90;;
17864;SDS011;9058;52.018;4.202;2023-04-24T00:30:29;6.65;;;2.60;;
17864;SDS011;9058;52.018;4.202;2023-04-24T00:33:01;6.80;;;2.55;;
17864;SDS011;9058;52.018;4.202;2023-04-24T00:35:28;5.13;;;2.10;;
17864;SDS011;9058;52.018;4.202;2023-04-24T00:37:55;7.57;;;2.08;;
17864;SDS011;9058;52.018;4.202;2023-04-24T00:40:21;8.00;;;2.08;;
17864;SDS011;9058;52.018;4.202;2023-04-24T00:42:48;4.75;;;1.95;;
17864;SDS011;9058;52.018;4.202;2023-04-24T00:45:14;8.15;;;1.90;;
17864;SDS011;9058;52.018;4.202;2023-04-24T00:47:42;5.60;;;1.73;;
17864;SDS011;9058;52.018;4.202;2023-04-24T00:50:10;7.18;;;2.10;;
17864;SDS011;9058;52.018;4.202;2023-04-24T00:52:38;5.45;;;2.45;;
17864;SDS011;9058;52.018;4.202;2023-04-24T00:55:06;12.30;;;2.30;;
17864;SDS011;9058;52.018;4.202;2023-04-24T00:57:32;10.90;;;2.83;;
17864;SDS011;9058;52.018;4.202;2023-04-24T00:59:59;3.97;;;2.28;;
17864;SDS011;9058;52.018;4.202;2023-04-24T01:02:26;10.80;;;3.03;;
17864;SDS011;9058;52.018;4.202;2023-04-24T01:04:53;7.28;;;2.17;;
17864;SDS011;9058;52.018;4.202;2023-04-24T01:07:21;8.13;;;3.30;;
17864;SDS011;9058;52.018;4.202;2023-04-24T01:09:48;4.43;;;2.85;;
17864;SDS011;9058;52.018;4.202;2023-04-24T01:12:16;6.57;;;2.83;;
17864;SDS011;9058;52.018;4.202;2023-04-24T01:14:42;7.60;;;2.65;;
17864;SDS011;9058;52.018;4.202;2023-04-24T01:17:09;8.68;;;2.80;;
17864;SDS011;9058;52.018;4.202;2023-04-24T01:19:36;5.78;;;2.63;;
17864;SDS011;9058;52.018;4.202;2023-04-24T01:22:03;3.85;;;3.15;;
17864;SDS011;9058;52.018;4.202;2023-04-24T01:24:32;4.47;;;2.75;;
17864;SDS011;9058;52.018;4.202;2023-04-24T01:26:58;4.78;;;2.60;;
17864;SDS011;9058;52.018;4.202;2023-04-24T01:29:26;6.22;;;2.65;;
17864;SDS011;9058;52.018;4.202;2023-04-24T01:31:52;5.63;;;2.63;;
17864;SDS011;9058;52.018;4.202;2023-04-24T01:34:19;6.05;;;2.38;;
17864;SDS011;9058;52.018;4.202;2023-04-24T01:36:46;2.75;;;1.80;;
17864;SDS011;9058;52.018;4.202;2023-04-24T01:39:13;5.53;;;2.50;;
17864;SDS011;9058;52.018;4.202;2023-04-24T01:41:42;6.15;;;3.50;;
17864;SDS011;9058;52.018;4.202;2023-04-24T01:44:08;6.07;;;4.38;;
17864;SDS011;9058;52.018;4.202;2023-04-24T01:46:35;11.43;;;3.72;;
17864;SDS011;9058;52.018;4.202;2023-04-24T01:49:04;5.82;;;2.75;;
17864;SDS011;9058;52.018;4.202;2023-04-24T01:51:30;4.97;;;2.40;;
17864;SDS011;9058;52.018;4.202;2023-04-24T01:53:58;3.33;;;2.47;;
17864;SDS011;9058;52.018;4.202;2023-04-24T01:56:24;8.30;;;2.67;;
17864;SDS011;9058;52.018;4.202;2023-04-24T01:58:56;10.20;;;2.83;;
17864;SDS011;9058;52.018;4.202;2023-04-24T02:01:25;3.65;;;2.38;;
17864;SDS011;9058;52.018;4.202;2023-04-24T02:03:52;8.93;;;2.92;;
17864;SDS011;9058;52.018;4.202;2023-04-24T02:06:18;6.13;;;2.45;;
17864;SDS011;9058;52.018;4.202;2023-04-24T02:08:45;6.55;;;2.22;;
17864;SDS011;9058;52.018;4.202;2023-04-24T02:11:13;4.28;;;2.35;;
17864;SDS011;9058;52.018;4.202;2023-04-24T02:13:39;6.10;;;2.03;;
17864;SDS011;9058;52.018;4.202;2023-04-24T02:16:07;4.25;;;1.50;;
17864;SDS011;9058;52.018;4.202;2023-04-24T02:18:34;7.05;;;1.92;;
17864;SDS011;9058;52.018;4.202;2023-04-24T02:21:01;2.65;;;1.65;;
17864;SDS011;9058;52.018;4.202;2023-04-24T02:23:28;7.97;;;1.70;;
17864;SDS011;9058;52.018;4.202;2023-04-24T02:25:54;8.02;;;1.75;;
17864;SDS011;9058;52.018;4.202;2023-04-24T02:28:21;5.50;;;1.30;;
17864;SDS011;9058;52.018;4.202;2023-04-24T02:30:47;3.17;;;1.73;;
17864;SDS011;9058;52.018;4.202;2023-04-24T02:33:16;10.30;;;2.15;;
17864;SDS011;9058;52.018;4.202;2023-04-24T02:35:43;8.35;;;2.17;;
17864;SDS011;9058;52.018;4.202;2023-04-24T02:38:10;5.72;;;2.33;;
17864;SDS011;9058;52.018;4.202;2023-04-24T02:40:38;7.28;;;2.60;;
17864;SDS011;9058;52.018;4.202;2023-04-24T02:43:05;6.65;;;2.50;;
17864;SDS011;9058;52.018;4.202;2023-04-24T02:45:32;8.00;;;2.20;;
17864;SDS011;9058;52.018;4.202;2023-04-24T02:47:59;6.95;;;2.20;;
17864;SDS011;9058;52.018;4.202;2023-04-24T02:50:28;5.57;;;1.63;;
17864;SDS011;9058;52.018;4.202;2023-04-24T02:52:55;7.63;;;1.60;;
17864;SDS011;9058;52.018;4.202;2023-04-24T02:55:23;7.57;;;1.30;;
17864;SDS011;9058;52.018;4.202;2023-04-24T02:57:50;6.05;;;1.20;;
17864;SDS011;9058;52.018;4.202;2023-04-24T03:00:17;4.50;;;1.08;;
17864;SDS011;9058;52.018;4.202;2023-04-24T03:02:43;3.60;;;1.20;;
17864;SDS011;9058;52.018;4.202;2023-04-24T03:05:10;10.30;;;1.77;;
17864;SDS011;9058;52.018;4.202;2023-04-24T03:07:41;17.10;;;3.22;;
17864;SDS011;9058;52.018;4.202;2023-04-24T03:10:08;14.63;;;2.72;;
17864;SDS011;9058;52.018;4.202;2023-04-24T03:12:34;13.63;;;2.63;;
17864;SDS011;9058;52.018;4.202;2023-04-24T03:15:01;17.42;;;2.92;;
17864;SDS011;9058;52.018;4.202;2023-04-24T03:17:27;22.75;;;3.00;;
17864;SDS011;9058;52.018;4.202;2023-04-24T03:19:55;16.45;;;2.78;;
17864;SDS011;9058;52.018;4.202;2023-04-24T03:22:22;14.00;;;2.78;;
17864;SDS011;9058;52.018;4.202;2023-04-24T03:24:50;11.88;;;2.85;;
17864;SDS011;9058;52.018;4.202;2023-04-24T03:27:17;14.00;;;2.63;;
17864;SDS011;9058;52.018;4.202;2023-04-24T03:29:45;12.48;;;2.63;;
17864;SDS011;9058;52.018;4.202;2023-04-24T03:32:11;10.95;;;2.00;;
17864;SDS011;9058;52.018;4.202;2023-04-24T03:34:38;10.35;;;2.42;;
17864;SDS011;9058;52.018;4.202;2023-04-24T03:37:04;4.43;;;1.75;;
17864;SDS011;9058;52.018;4.202;2023-04-24T03:39:32;7.50;;;1.65;;
17864;SDS011;9058;52.018;4.202;2023-04-24T03:42:00;11.13;;;2.65;;
17864;SDS011;9058;52.018;4.202;2023-04-24T03:44:27;9.70;;;3.80;;
17864;SDS011;9058;52.018;4.202;2023-04-24T03:46:54;21.27;;;7.75;;
17864;SDS011;9058;52.018;4.202;2023-04-24T03:49:22;20.08;;;7.22;;
17864;SDS011;9058;52.018;4.202;2023-04-24T03:51:49;19.08;;;7.10;;
17864;SDS011;9058;52.018;4.202;2023-04-24T03:54:19;21.67;;;8.18;;
17864;SDS011;9058;52.018;4.202;2023-04-24T03:56:45;14.95;;;7.30;;
17864;SDS011;9058;52.018;4.202;2023-04-24T03:59:13;21.05;;;6.53;;
17864;SDS011;9058;52.018;4.202;2023-04-24T04:01:39;23.13;;;7.53;;
17864;SDS011;9058;52.018;4.202;2023-04-24T04:04:06;14.27;;;6.63;;
17864;SDS011;9058;52.018;4.202;2023-04-24T04:06:32;14.45;;;6.60;;
17864;SDS011;9058;52.018;4.202;2023-04-24T04:08:59;15.98;;;6.68;;
17864;SDS011;9058;52.018;4.202;2023-04-24T04:11:29;18.45;;;7.97;;
17864;SDS011;9058;52.018;4.202;2023-04-24T04:13:56;24.27;;;8.90;;
17864;SDS011;9058;52.018;4.202;2023-04-24T04:16:24;18.48;;;8.75;;
17864;SDS011;9058;52.018;4.202;2023-04-24T04:18:52;19.08;;;7.97;;
17864;SDS011;9058;52.018;4.202;2023-04-24T04:21:18;23.40;;;10.20;;
17864;SDS011;9058;52.018;4.202;2023-04-24T04:23:45;22.35;;;8.75;;
17864;SDS011;9058;52.018;4.202;2023-04-24T04:26:13;18.88;;;9.45;;
17864;SDS011;9058;52.018;4.202;2023-04-24T04:28:39;15.00;;;8.90;;
17864;SDS011;9058;52.018;4.202;2023-04-24T04:31:06;25.60;;;11.75;;
17864;SDS011;9058;52.018;4.202;2023-04-24T04:33:36;28.08;;;12.60;;
17864;SDS011;9058;52.018;4.202;2023-04-24T04:36:04;33.75;;;12.95;;
17864;SDS011;9058;52.018;4.202;2023-04-24T04:38:31;29.30;;;12.15;;
17864;SDS011;9058;52.018;4.202;2023-04-24T04:40:58;30.83;;;13.20;;
17864;SDS011;9058;52.018;4.202;2023-04-24T04:43:25;31.25;;;13.15;;
17864;SDS011;9058;52.018;4.202;2023-04-24T04:45:53;31.85;;;13.38;;
17864;SDS011;9058;52.018;4.202;2023-04-24T04:48:21;30.88;;;14.15;;
17864;SDS011;9058;52.018;4.202;2023-04-24T04:50:50;29.17;;;12.77;;
17864;SDS011;9058;52.018;4.202;2023-04-24T04:53:17;28.85;;;14.80;;
17864;SDS011;9058;52.018;4.202;2023-04-24T04:55:45;27.08;;;12.25;;
17864;SDS011;9058;52.018;4.202;2023-04-24T04:58:12;25.90;;;12.80;;
17864;SDS011;9058;52.018;4.202;2023-04-24T05:00:38;29.95;;;14.77;;
17864;SDS011;9058;52.018;4.202;2023-04-24T05:03:06;29.27;;;15.05;;
17864;SDS011;9058;52.018;4.202;2023-04-24T05:05:33;23.35;;;12.43;;
17864;SDS011;9058;52.018;4.202;2023-04-24T05:08:01;35.00;;;14.65;;
17864;SDS011;9058;52.018;4.202;2023-04-24T05:10:27;29.65;;;13.07;;
17864;SDS011;9058;52.018;4.202;2023-04-24T05:12:54;21.92;;;13.07;;
17864;SDS011;9058;52.018;4.202;2023-04-24T05:15:20;22.52;;;11.90;;
17864;SDS011;9058;52.018;4.202;2023-04-24T05:17:47;22.05;;;10.77;;
17864;SDS011;9058;52.018;4.202;2023-04-24T05:20:13;28.10;;;14.70;;
17864;SDS011;9058;52.018;4.202;2023-04-24T05:22:40;26.38;;;11.55;;
17864;SDS011;9058;52.018;4.202;2023-04-24T05:25:08;34.72;;;12.90;;
17864;SDS011;9058;52.018;4.202;2023-04-24T05:27:37;26.00;;;10.88;;
17864;SDS011;9058;52.018;4.202;2023-04-24T05:30:04;24.58;;;11.75;;
17864;SDS011;9058;52.018;4.202;2023-04-24T05:32:31;36.45;;;12.38;;
17864;SDS011;9058;52.018;4.202;2023-04-24T05:34:58;32.20;;;10.02;;
17864;SDS011;9058;52.018;4.202;2023-04-24T05:37:24;20.55;;;8.15;;
17864;SDS011;9058;52.018;4.202;2023-04-24T05:39:50;32.63;;;8.88;;
17864;SDS011;9058;52.018;4.202;2023-04-24T05:42:18;30.20;;;9.43;;
17864;SDS011;9058;52.018;4.202;2023-04-24T05:44:44;24.30;;;7.13;;
17864;SDS011;9058;52.018;4.202;2023-04-24T05:47:11;20.77;;;7.97;;
17864;SDS011;9058;52.018;4.202;2023-04-24T05:49:37;22.52;;;6.68;;
17864;SDS011;9058;52.018;4.202;2023-04-24T05:52:04;21.33;;;8.45;;
17864;SDS011;9058;52.018;4.202;2023-04-24T05:54:33;22.20;;;7.38;;
17864;SDS011;9058;52.018;4.202;2023-04-24T05:57:00;20.60;;;6.93;;
17864;SDS011;9058;52.018;4.202;2023-04-24T05:59:36;23.27;;;5.80;;
17864;SDS011;9058;52.018;4.202;2023-04-24T06:02:02;22.60;;;7.35;;
17864;SDS011;9058;52.018;4.202;2023-04-24T06:04:29;24.23;;;6.80;;
17864;SDS011;9058;52.018;4.202;2023-04-24T06:06:56;21.73;;;6.13;;
17864;SDS011;9058;52.018;4.202;2023-04-24T06:09:22;22.20;;;5.90;;
17864;SDS011;9058;52.018;4.202;2023-04-24T06:11:49;18.65;;;5.68;;
17864;SDS011;9058;52.018;4.202;2023-04-24T06:14:17;21.60;;;6.13;;
17864;SDS011;9058;52.018;4.202;2023-04-24T06:16:45;17.00;;;6.15;;
17864;SDS011;9058;52.018;4.202;2023-04-24T06:19:12;18.42;;;5.80;;
17864;SDS011;9058;52.018;4.202;2023-04-24T06:21:38;21.25;;;5.28;;
17864;SDS011;9058;52.018;4.202;2023-04-24T06:24:05;19.42;;;5.20;;
17864;SDS011;9058;52.018;4.202;2023-04-24T06:26:31;24.02;;;5.78;;
17864;SDS011;9058;52.018;4.202;2023-04-24T06:28:57;14.93;;;4.82;;
17864;SDS011;9058;52.018;4.202;2023-04-24T06:31:25;15.73;;;4.68;;
17864;SDS011;9058;52.018;4.202;2023-04-24T06:33:54;17.23;;;4.32;;
17864;SDS011;9058;52.018;4.202;2023-04-24T06:36:20;19.63;;;4.97;;
17864;SDS011;9058;52.018;4.202;2023-04-24T06:38:47;24.50;;;5.60;;
17864;SDS011;9058;52.018;4.202;2023-04-24T06:41:13;22.08;;;4.68;;
17864;SDS011;9058;52.018;4.202;2023-04-24T06:43:40;27.50;;;5.43;;
17864;SDS011;9058;52.018;4.202;2023-04-24T06:46:06;23.80;;;4.03;;
17864;SDS011;9058;52.018;4.202;2023-04-24T06:48:33;20.83;;;4.25;;
17864;SDS011;9058;52.018;4.202;2023-04-24T06:51:01;15.25;;;3.88;;
17864;SDS011;9058;52.018;4.202;2023-04-24T06:53:27;17.00;;;3.60;;
17864;SDS011;9058;52.018;4.202;2023-04-24T06:55:53;16.25;;;3.47;;
17864;SDS011;9058;52.018;4.202;2023-04-24T06:58:20;18.23;;;4.50;;
17864;SDS011;9058;52.018;4.202;2023-04-24T07:00:46;18.00;;;3.85;;
17864;SDS011;9058;52.018;4.202;2023-04-24T07:03:13;11.88;;;2.58;;
17864;SDS011;9058;52.018;4.202;2023-04-24T07:05:41;14.75;;;4.35;;
17864;SDS011;9058;52.018;4.202;2023-04-24T07:08:09;9.80;;;2.65;;
17864;SDS011;9058;52.018;4.202;2023-04-24T07:10:36;9.02;;;3.47;;
17864;SDS011;9058;52.018;4.202;2023-04-24T07:13:03;11.05;;;2.65;;
17864;SDS011;9058;52.018;4.202;2023-04-24T07:15:32;9.90;;;3.20;;
17864;SDS011;9058;52.018;4.202;2023-04-24T07:17:59;9.85;;;4.28;;
17864;SDS011;9058;52.018;4.202;2023-04-24T07:20:27;12.90;;;2.78;;
17864;SDS011;9058;52.018;4.202;2023-04-24T07:22:53;12.50;;;3.17;;
17864;SDS011;9058;52.018;4.202;2023-04-24T07:25:22;15.60;;;3.50;;
17864;SDS011;9058;52.018;4.202;2023-04-24T07:27:48;19.73;;;3.42;;
17864;SDS011;9058;52.018;4.202;2023-04-24T07:30:15;8.73;;;2.30;;
17864;SDS011;9058;52.018;4.202;2023-04-24T07:32:41;13.82;;;3.50;;
17864;SDS011;9058;52.018;4.202;2023-04-24T07:35:08;9.95;;;2.28;;
17864;SDS011;9058;52.018;4.202;2023-04-24T07:37:35;10.85;;;2.53;;
17864;SDS011;9058;52.018;4.202;2023-04-24T07:40:01;16.65;;;2.70;;
17864;SDS011;9058;52.018;4.202;2023-04-24T07:42:30;10.10;;;2.30;;
17864;SDS011;9058;52.018;4.202;2023-04-24T07:44:56;16.15;;;3.17;;
17864;SDS011;9058;52.018;4.202;2023-04-24T07:47:24;12.27;;;2.92;;
17864;SDS011;9058;52.018;4.202;2023-04-24T07:49:52;9.98;;;2.38;;
17864;SDS011;9058;52.018;4.202;2023-04-24T07:52:18;6.90;;;2.42;;
17864;SDS011;9058;52.018;4.202;2023-04-24T07:54:45;12.43;;;2.78;;
17864;SDS011;9058;52.018;4.202;2023-04-24T07:57:11;8.00;;;2.30;;
17864;SDS011;9058;52.018;4.202;2023-04-24T07:59:41;10.13;;;2.28;;
17864;SDS011;9058;52.018;4.202;2023-04-24T08:02:07;8.82;;;2.25;;
17864;SDS011;9058;52.018;4.202;2023-04-24T08:04:34;8.40;;;2.20;;
17864;SDS011;9058;52.018;4.202;2023-04-24T08:07:01;10.23;;;2.10;;
17864;SDS011;9058;52.018;4.202;2023-04-24T08:09:30;9.98;;;2.47;;
17864;SDS011;9058;52.018;4.202;2023-04-24T08:11:58;6.53;;;1.95;;
17864;SDS011;9058;52.018;4.202;2023-04-24T08:14:24;7.13;;;1.95;;
17864;SDS011;9058;52.018;4.202;2023-04-24T08:16:53;11.00;;;2.40;;
17864;SDS011;9058;52.018;4.202;2023-04-24T08:19:20;11.95;;;3.05;;
17864;SDS011;9058;52.018;4.202;2023-04-24T08:21:47;9.57;;;3.20;;
17864;SDS011;9058;52.018;4.202;2023-04-24T08:24:13;7.95;;;1.63;;
17864;SDS011;9058;52.018;4.202;2023-04-24T08:26:40;8.48;;;2.00;;
17864;SDS011;9058;52.018;4.202;2023-04-24T08:29:06;3.80;;;1.40;;
17864;SDS011;9058;52.018;4.202;2023-04-24T08:31:33;6.57;;;1.25;;
17864;SDS011;9058;52.018;4.202;2023-04-24T08:34:01;9.13;;;1.98;;
17864;SDS011;9058;52.018;4.202;2023-04-24T08:36:28;10.05;;;2.03;;
17864;SDS011;9058;52.018;4.202;2023-04-24T08:38:54;5.40;;;1.52;;
17864;SDS011;9058;52.018;4.202;2023-04-24T08:41:21;10.63;;;2.75;;
17864;SDS011;9058;52.018;4.202;2023-04-24T08:43:51;9.85;;;2.22;;
17864;SDS011;9058;52.018;4.202;2023-04-24T08:46:20;10.27;;;1.75;;
17864;SDS011;9058;52.018;4.202;2023-04-24T08:48:46;8.48;;;1.48;;
17864;SDS011;9058;52.018;4.202;2023-04-24T08:51:14;8.10;;;1.50;;
17864;SDS011;9058;52.018;4.202;2023-04-24T08:53:41;6.75;;;1.80;;
17864;SDS011;9058;52.018;4.202;2023-04-24T08:56:07;8.95;;;1.85;;
17864;SDS011;9058;52.018;4.202;2023-04-24T08:58:34;2.38;;;1.38;;
17864;SDS011;9058;52.018;4.202;2023-04-24T09:01:02;7.55;;;1.38;;
17864;SDS011;9058;52.018;4.202;2023-04-24T09:03:30;7.07;;;1.30;;
17864;SDS011;9058;52.018;4.202;2023-04-24T09:05:57;5.75;;;1.20;;
17864;SDS011;9058;52.018;4.202;2023-04-24T09:08:25;7.18;;;1.38;;
17864;SDS011;9058;52.018;4.202;2023-04-24T09:10:52;4.78;;;1.25;;
17864;SDS011;9058;52.018;4.202;2023-04-24T09:13:19;7.25;;;1.50;;
17864;SDS011;9058;52.018;4.202;2023-04-24T09:15:47;6.32;;;1.30;;
17864;SDS011;9058;52.018;4.202;2023-04-24T09:18:13;7.32;;;1.70;;
17864;SDS011;9058;52.018;4.202;2023-04-24T09:23:21;5.35;;;1.60;;
17864;SDS011;9058;52.018;4.202;2023-04-24T09:25:50;6.43;;;1.10;;
17864;SDS011;9058;52.018;4.202;2023-04-24T09:28:22;6.53;;;1.50;;
17864;SDS011;9058;52.018;4.202;2023-04-24T09:31:01;5.28;;;1.35;;
17864;SDS011;9058;52.018;4.202;2023-04-24T09:33:28;9.55;;;1.88;;
17864;SDS011;9058;52.018;4.202;2023-04-24T09:35:55;3.40;;;1.15;;
17864;SDS011;9058;52.018;4.202;2023-04-24T09:38:30;8.25;;;2.03;;
17864;SDS011;9058;52.018;4.202;2023-04-24T09:41:00;3.95;;;1.30;;
17864;SDS011;9058;52.018;4.202;2023-04-24T09:43:27;5.45;;;1.15;;
17864;SDS011;9058;52.018;4.202;2023-04-24T09:45:55;4.13;;;1.27;;
17864;SDS011;9058;52.018;4.202;2023-04-24T09:48:29;5.38;;;1.55;;
17864;SDS011;9058;52.018;4.202;2023-04-24T09:50:57;7.22;;;1.20;;
17864;SDS011;9058;52.018;4.202;2023-04-24T09:56:27;7.00;;;1.75;;
17864;SDS011;9058;52.018;4.202;2023-04-24T09:58:54;4.07;;;1.02;;
17864;SDS011;9058;52.018;4.202;2023-04-24T10:01:28;10.38;;;1.77;;
17864;SDS011;9058;52.018;4.202;2023-04-24T10:03:56;8.07;;;1.70;;
17864;SDS011;9058;52.018;4.202;2023-04-24T10:06:22;5.07;;;1.77;;
17864;SDS011;9058;52.018;4.202;2023-04-24T10:08:49;7.10;;;1.70;;
17864;SDS011;9058;52.018;4.202;2023-04-24T10:11:15;9.88;;;1.77;;
17864;SDS011;9058;52.018;4.202;2023-04-24T10:13:44;9.32;;;1.90;;
17864;SDS011;9058;52.018;4.202;2023-04-24T10:16:11;9.68;;;1.83;;
17864;SDS011;9058;52.018;4.202;2023-04-24T10:18:37;4.32;;;1.50;;
17864;SDS011;9058;52.018;4.202;2023-04-24T10:21:05;7.03;;;1.65;;
17864;SDS011;9058;52.018;4.202;2023-04-24T10:23:33;7.65;;;2.10;;
17864;SDS011;9058;52.018;4.202;2023-04-24T10:26:00;12.48;;;1.95;;
17864;SDS011;9058;52.018;4.202;2023-04-24T10:28:26;7.85;;;2.05;;
17864;SDS011;9058;52.018;4.202;2023-04-24T10:30:56;6.85;;;1.50;;
17864;SDS011;9058;52.018;4.202;2023-04-24T10:33:23;8.65;;;1.65;;
17864;SDS011;9058;52.018;4.202;2023-04-24T10:35:50;10.90;;;1.58;;
17864;SDS011;9058;52.018;4.202;2023-04-24T10:38:18;4.28;;;1.30;;
17864;SDS011;9058;52.018;4.202;2023-04-24T10:40:49;5.25;;;1.55;;
17864;SDS011;9058;52.018;4.202;2023-04-24T10:43:16;3.70;;;1.10;;
17864;SDS011;9058;52.018;4.202;2023-04-24T10:45:43;4.97;;;1.25;;
17864;SDS011;9058;52.018;4.202;2023-04-24T10:48:27;4.35;;;0.90;;
17864;SDS011;9058;52.018;4.202;2023-04-24T10:50:53;3.30;;;0.60;;
17864;SDS011;9058;52.018;4.202;2023-04-24T10:53:20;4.38;;;0.98;;
17864;SDS011;9058;52.018;4.202;2023-04-24T10:55:49;3.63;;;1.20;;
17864;SDS011;9058;52.018;4.202;2023-04-24T10:58:21;2.92;;;1.30;;
17864;SDS011;9058;52.018;4.202;2023-04-24T11:00:55;7.70;;;1.90;;
17864;SDS011;9058;52.018;4.202;2023-04-24T11:03:23;4.80;;;1.20;;
17864;SDS011;9058;52.018;4.202;2023-04-24T11:05:53;5.53;;;1.70;;
17864;SDS011;9058;52.018;4.202;2023-04-24T11:08:23;7.40;;;1.20;;
17864;SDS011;9058;52.018;4.202;2023-04-24T11:10:55;4.70;;;1.95;;
17864;SDS011;9058;52.018;4.202;2023-04-24T11:13:22;4.20;;;1.17;;
17864;SDS011;9058;52.018;4.202;2023-04-24T11:18:37;4.15;;;1.23;;
17864;SDS011;9058;52.018;4.202;2023-04-24T11:21:12;5.32;;;1.60;;
17864;SDS011;9058;52.018;4.202;2023-04-24T11:23:38;8.15;;;1.65;;
17864;SDS011;9058;52.018;4.202;2023-04-24T11:26:11;7.97;;;1.77;;
17864;SDS011;9058;52.018;4.202;2023-04-24T11:28:44;4.72;;;1.30;;
17864;SDS011;9058;52.018;4.202;2023-04-24T11:31:37;6.05;;;1.50;;
17864;SDS011;9058;52.018;4.202;2023-04-24T11:34:06;9.95;;;1.88;;
17864;SDS011;9058;52.018;4.202;2023-04-24T11:36:34;7.05;;;1.65;;
17864;SDS011;9058;52.018;4.202;2023-04-24T11:39:01;7.88;;;1.92;;
17864;SDS011;9058;52.018;4.202;2023-04-24T11:41:28;10.05;;;1.63;;
17864;SDS011;9058;52.018;4.202;2023-04-24T11:43:54;7.88;;;1.90;;
17864;SDS011;9058;52.018;4.202;2023-04-24T11:46:21;5.47;;;1.70;;
17864;SDS011;9058;52.018;4.202;2023-04-24T11:48:47;9.30;;;1.95;;
17864;SDS011;9058;52.018;4.202;2023-04-24T11:51:14;8.10;;;1.63;;
17864;SDS011;9058;52.018;4.202;2023-04-24T11:53:42;8.60;;;2.15;;
17864;SDS011;9058;52.018;4.202;2023-04-24T11:56:08;9.20;;;2.55;;
17864;SDS011;9058;52.018;4.202;2023-04-24T11:58:35;8.07;;;2.03;;
17864;SDS011;9058;52.018;4.202;2023-04-24T12:01:02;9.45;;;2.72;;
17864;SDS011;9058;52.018;4.202;2023-04-24T12:03:28;9.88;;;2.30;;
17864;SDS011;9058;52.018;4.202;2023-04-24T12:06:04;7.43;;;2.33;;
17864;SDS011;9058;52.018;4.202;2023-04-24T12:08:30;8.15;;;2.22;;
17864;SDS011;9058;52.018;4.202;2023-04-24T12:10:58;14.23;;;2.88;;
17864;SDS011;9058;52.018;4.202;2023-04-24T12:13:26;11.65;;;2.80;;
17864;SDS011;9058;52.018;4.202;2023-04-24T12:15:52;9.73;;;2.80;;
17864;SDS011;9058;52.018;4.202;2023-04-24T12:18:21;12.30;;;2.97;;
17864;SDS011;9058;52.018;4.202;2023-04-24T12:20:48;9.75;;;2.83;;
17864;SDS011;9058;52.018;4.202;2023-04-24T12:23:14;10.13;;;2.88;;
17864;SDS011;9058;52.018;4.202;2023-04-24T12:25:41;10.13;;;2.53;;
17864;SDS011;9058;52.018;4.202;2023-04-24T12:28:10;13.45;;;3.08;;
17864;SDS011;9058;52.018;4.202;2023-04-24T12:30:39;12.48;;;2.83;;
17864;SDS011;9058;52.018;4.202;2023-04-24T12:33:06;11.80;;;2.60;;
17864;SDS011;9058;52.018;4.202;2023-04-24T12:35:34;12.82;;;2.85;;
17864;SDS011;9058;52.018;4.202;2023-04-24T12:38:05;9.38;;;2.33;;
17864;SDS011;9058;52.018;4.202;2023-04-24T12:40:33;15.77;;;2.70;;
17864;SDS011;9058;52.018;4.202;2023-04-24T12:42:59;9.57;;;2.65;;
17864;SDS011;9058;52.018;4.202;2023-04-24T12:45:29;14.88;;;2.80;;
17864;SDS011;9058;52.018;4.202;2023-04-24T12:47:56;12.55;;;3.05;;
17864;SDS011;9058;52.018;4.202;2023-04-24T12:50:22;10.23;;;3.42;;
17864;SDS011;9058;52.018;4.202;2023-04-24T12:52:48;13.77;;;3.42;;
17864;SDS011;9058;52.018;4.202;2023-04-24T12:55:15;9.63;;;3.85;;
17864;SDS011;9058;52.018;4.202;2023-04-24T12:57:41;13.52;;;3.33;;
17864;SDS011;9058;52.018;4.202;2023-04-24T13:00:08;11.65;;;2.95;;
17864;SDS011;9058;52.018;4.202;2023-04-24T13:02:36;11.18;;;3.30;;
17864;SDS011;9058;52.018;4.202;2023-04-24T13:05:03;14.75;;;3.83;;
17864;SDS011;9058;52.018;4.202;2023-04-24T13:07:29;11.60;;;3.45;;
17864;SDS011;9058;52.018;4.202;2023-04-24T13:09:56;14.35;;;3.75;;
17864;SDS011;9058;52.018;4.202;2023-04-24T13:12:22;15.10;;;3.97;;
17864;SDS011;9058;52.018;4.202;2023-04-24T13:14:52;10.40;;;3.25;;
17864;SDS011;9058;52.018;4.202;2023-04-24T13:17:21;11.20;;;3.25;;
17864;SDS011;9058;52.018;4.202;2023-04-24T13:19:50;14.68;;;3.83;;
17864;SDS011;9058;52.018;4.202;2023-04-24T13:22:17;6.70;;;2.50;;
17864;SDS011;9058;52.018;4.202;2023-04-24T13:24:44;5.40;;;2.40;;
17864;SDS011;9058;52.018;4.202;2023-04-24T13:27:11;18.27;;;4.15;;
17864;SDS011;9058;52.018;4.202;2023-04-24T13:29:37;14.00;;;3.05;;
17864;SDS011;9058;52.018;4.202;2023-04-24T13:32:05;7.90;;;3.10;;
17864;SDS011;9058;52.018;4.202;2023-04-24T13:34:32;8.57;;;3.17;;
17864;SDS011;9058;52.018;4.202;2023-04-24T13:37:01;14.13;;;3.55;;
17864;SDS011;9058;52.018;4.202;2023-04-24T13:39:29;12.88;;;3.55;;
17864;SDS011;9058;52.018;4.202;2023-04-24T13:41:56;14.43;;;3.70;;
17864;SDS011;9058;52.018;4.202;2023-04-24T13:44:23;10.88;;;3.53;;
17864;SDS011;9058;52.018;4.202;2023-04-24T13:46:51;9.80;;;3.03;;
17864;SDS011;9058;52.018;4.202;2023-04-24T13:49:21;12.38;;;4.22;;
17864;SDS011;9058;52.018;4.202;2023-04-24T13:51:49;9.05;;;3.17;;
17864;SDS011;9058;52.018;4.202;2023-04-24T13:54:19;14.73;;;4.03;;
17864;SDS011;9058;52.018;4.202;2023-04-24T13:56:45;15.60;;;4.13;;
17864;SDS011;9058;52.018;4.202;2023-04-24T13:59:13;11.18;;;3.72;;
17864;SDS011;9058;52.018;4.202;2023-04-24T14:01:39;15.68;;;4.38;;
17864;SDS011;9058;52.018;4.202;2023-04-24T14:04:05;13.15;;;3.90;;
17864;SDS011;9058;52.018;4.202;2023-04-24T14:06:32;10.95;;;3.55;;
17864;SDS011;9058;52.018;4.202;2023-04-24T14:08:58;9.43;;;2.55;;
17864;SDS011;9058;52.018;4.202;2023-04-24T14:11:27;7.85;;;2.70;;
17864;SDS011;9058;52.018;4.202;2023-04-24T14:13:53;9.63;;;3.17;;
17864;SDS011;9058;52.018;4.202;2023-04-24T14:16:20;12.98;;;2.95;;
17864;SDS011;9058;52.018;4.202;2023-04-24T14:18:47;13.45;;;4.47;;
17864;SDS011;9058;52.018;4.202;2023-04-24T14:21:13;11.60;;;3.22;;
17864;SDS011;9058;52.018;4.202;2023-04-24T14:23:39;14.23;;;3.20;;
17864;SDS011;9058;52.018;4.202;2023-04-24T14:26:06;8.75;;;3.45;;
17864;SDS011;9058;52.018;4.202;2023-04-24T14:28:34;8.15;;;2.65;;
17864;SDS011;9058;52.018;4.202;2023-04-24T14:31:00;9.23;;;3.58;;
17864;SDS011;9058;52.018;4.202;2023-04-24T14:33:28;9.40;;;3.10;;
17864;SDS011;9058;52.018;4.202;2023-04-24T14:35:54;14.38;;;3.10;;
17864;SDS011;9058;52.018;4.202;2023-04-24T14:38:22;10.85;;;3.70;;
17864;SDS011;9058;52.018;4.202;2023-04-24T14:40:49;14.80;;;3.25;;
17864;SDS011;9058;52.018;4.202;2023-04-24T14:43:15;12.95;;;3.50;;
17864;SDS011;9058;52.018;4.202;2023-04-24T14:45:44;11.18;;;3.38;;
17864;SDS011;9058;52.018;4.202;2023-04-24T14:48:10;11.45;;;4.22;;
17864;SDS011;9058;52.018;4.202;2023-04-24T14:50:37;13.23;;;4.40;;
17864;SDS011;9058;52.018;4.202;2023-04-24T14:53:03;18.40;;;4.28;;
17864;SDS011;9058;52.018;4.202;2023-04-24T14:55:30;17.45;;;4.15;;
17864;SDS011;9058;52.018;4.202;2023-04-24T14:57:57;17.50;;;4.45;;
17864;SDS011;9058;52.018;4.202;2023-04-24T15:00:24;18.35;;;4.60;;
17864;SDS011;9058;52.018;4.202;2023-04-24T15:02:51;15.13;;;4.32;;